KSEA

Seattle-Tacoma International Airport

Seattle, Washington, USA
METAR KSEA 232253Z 10007KT 6SM -RA BR OVC034 06/04 A2986 RMK AO2 SLP118 P0007 T00610044
Observed Flight Rules
Jan-23 @ 22:53 UTC (30 minutes ago) Visual Flight Rules
Wind Visibility Clouds Conditions
100° at 7 knots 6 miles
  • Overcast at 3,400' AGL
  • Light Rain
  • Mist
Temperatures Readings Precipitation
Current 6°C / 43°F
Dewpoint 4°C / 39°F
Humidity 87%
Altimeter 29.86" Hg
Pressure 1011.8 hPa
Elevation 136
Current Rain 0.07
METAR KSEA 232253Z 10007KT 6SM -RA BR OVC034 06/04 A2986 RMK AO2 SLP118 P0007 T00610044
Observed Flight Rules
Jan-23 @ 22:53 UTC
(30 minutes ago)
VFR
Wind Visibility
100° at 7 knots 6 miles
Clouds
  • Overcast at 3,400' AGL
Conditions
  • Light Rain
  • Mist
Temperature Dewpoint
6°C / 43°F 4°C / 39°F
Humidity Altimeter Pressure
87% 29.86" Hg 1011.8 hPa
Current Rain
0.07